^^
Saratoga-Weather Station Historical Data
Daily Summary for September 18, 2021 Units:  Metric    English   Both
Daily Weekly Monthly Yearly Custom
  High: Low: Average:
Temperature: 7.7 °C 4.1 °C 5.9 °C
Dew Point: 6.4 °C 3.6 °C 5.1 °C
Humidity: 97% 90% 95%
Wind Speed: 11.3km/h 0km/h 2.1km/h
Wind Gust: 14.5km/h - -
Wind- - West
Pressure: 1032.5 hPa 1028.1 hPa -
Precipitation: 0.0 mm    
Historical Graphs
 
 
Tabular Data for September 18, 2021
Time Temperature Dew Point Pressure Wind Wind Speed Wind Gust Humidity Rainfall Rate (Hourly) solar
00:04 6.9 °C 6.2 °C 1028.1 hPa West 3.2 km/h 4.8 km/h 95% 0.0 mm 0 W/m2
00:09 6.9 °C 6.2 °C 1028.1 hPa Calm   3.2 km/h 95% 0.0 mm 0 W/m2
00:14 6.9 °C 6.2 °C 1028.1 hPa West 1.4 km/h 3.2 km/h 95% 0.0 mm 0 W/m2
00:19 6.9 °C 6.2 °C 1028.1 hPa WNW 1.4 km/h 6.4 km/h 95% 0.0 mm 0 W/m2
00:24 7 °C 6.3 °C 1028.1 hPa WNW 3.2 km/h 4.8 km/h 95% 0.0 mm 0 W/m2
00:29 7 °C 6.3 °C 1028.1 hPa West 4.7 km/h 6.4 km/h 95% 0.0 mm 0 W/m2
00:34 7.1 °C 6.4 °C 1028.1 hPa Calm   1.6 km/h 95% 0.0 mm 0 W/m2
00:39 7.1 °C 6.4 °C 1028.1 hPa Calm   1.6 km/h 95% 0.0 mm 0 W/m2
00:44 7.1 °C 6.4 °C 1028.1 hPa Calm   1.6 km/h 95% 0.0 mm 0 W/m2
00:49 7.1 °C 6.4 °C 1028.1 hPa WNW 1.4 km/h 4.8 km/h 95% 0.0 mm 0 W/m2
00:54 7.1 °C 6.4 °C 1028.1 hPa WNW 3.2 km/h 3.2 km/h 95% 0.0 mm 0 W/m2
00:59 7.1 °C 6.4 °C 1028.1 hPa NW 1.4 km/h 3.2 km/h 95% 0.0 mm 0 W/m2
01:04 7.1 °C 6.4 °C 1028.1 hPa WNW 3.2 km/h 6.4 km/h 95% 0.0 mm 0 W/m2
01:09 7 °C 6.3 °C 1028.1 hPa Calm   3.2 km/h 95% 0.0 mm 0 W/m2
01:14 6.9 °C 6.2 °C 1028.1 hPa WNW 1.4 km/h 6.4 km/h 95% 0.0 mm 0 W/m2
01:19 6.9 °C 6.2 °C 1028.1 hPa WNW 1.4 km/h 3.2 km/h 95% 0.0 mm 0 W/m2
01:24 6.8 °C 6.1 °C 1028.1 hPa Calm   3.2 km/h 95% 0.0 mm 0 W/m2
01:29 6.8 °C 5.9 °C 1028.1 hPa Calm     94% 0.0 mm 0 W/m2
01:34 6.7 °C 5.8 °C 1028.1 hPa WNW 1.4 km/h 3.2 km/h 94% 0.0 mm 0 W/m2
01:39 6.6 °C 5.7 °C 1028.1 hPa West 1.4 km/h 4.8 km/h 94% 0.0 mm 0 W/m2
01:44 6.4 °C 5.5 °C 1028.1 hPa Calm     94% 0.0 mm 0 W/m2
01:49 6.3 °C 5.4 °C 1028.1 hPa Calm   4.8 km/h 94% 0.0 mm 0 W/m2
01:54 6.2 °C 5.3 °C 1028.1 hPa West 3.2 km/h 3.2 km/h 94% 0.0 mm 0 W/m2
01:59 6.1 °C 5.2 °C 1028.1 hPa West 1.4 km/h 3.2 km/h 94% 0.0 mm 0 W/m2
02:05 5.9 °C 5 °C 1028.1 hPa Calm   1.6 km/h 94% 0.0 mm 0 W/m2
02:10 5.8 °C 5.1 °C 1028.1 hPa Calm     95% 0.0 mm 0 W/m2
02:15 5.8 °C 4.9 °C 1028.1 hPa Calm     94% 0.0 mm 0 W/m2
02:20 5.7 °C 5 °C 1028.1 hPa Calm   4.8 km/h 95% 0.0 mm 0 W/m2
02:25 5.7 °C 5 °C 1028.1 hPa WSW 1.4 km/h 3.2 km/h 95% 0.0 mm 0 W/m2
02:30 5.7 °C 5 °C 1028.1 hPa Calm   1.6 km/h 95% 0.0 mm 0 W/m2
02:35 5.7 °C 5 °C 1028.1 hPa Calm   3.2 km/h 95% 0.0 mm 0 W/m2
02:40 5.8 °C 5.1 °C 1028.1 hPa West 1.4 km/h 3.2 km/h 95% 0.0 mm 0 W/m2
02:45 5.7 °C 5 °C 1028.1 hPa Calm     95% 0.0 mm 0 W/m2
02:50 5.7 °C 5 °C 1028.1 hPa West 3.2 km/h 4.8 km/h 95% 0.0 mm 0 W/m2
02:55 5.7 °C 5 °C 1028.1 hPa West 1.4 km/h 4.8 km/h 95% 0.0 mm 0 W/m2
03:00 5.6 °C 4.9 °C 1028.5 hPa Calm   3.2 km/h 95% 0.0 mm 0 W/m2
03:05 5.5 °C 4.8 °C 1028.5 hPa Calm     95% 0.0 mm 0 W/m2
03:10 5.4 °C 4.7 °C 1028.5 hPa WNW 3.2 km/h 3.2 km/h 95% 0.0 mm 0 W/m2
03:15 5.3 °C 4.6 °C 1028.5 hPa Calm     95% 0.0 mm 0 W/m2
03:20 5.3 °C 4.6 °C 1028.8 hPa Calm     95% 0.0 mm 0 W/m2
03:25 5.2 °C 4.5 °C 1028.5 hPa Calm     95% 0.0 mm 0 W/m2
03:30 5.2 °C 4.6 °C 1028.5 hPa WNW 1.4 km/h 3.2 km/h 96% 0.0 mm 0 W/m2
03:35 5.3 °C 4.7 °C 1028.5 hPa WNW 1.4 km/h 3.2 km/h 96% 0.0 mm 0 W/m2
03:40 5.3 °C 4.7 °C 1028.5 hPa WNW 1.4 km/h 4.8 km/h 96% 0.0 mm 0 W/m2
03:45 5.3 °C 4.7 °C 1028.8 hPa WNW 1.4 km/h 4.8 km/h 96% 0.0 mm 0 W/m2
03:50 5.3 °C 4.7 °C 1028.8 hPa West 3.2 km/h 4.8 km/h 96% 0.0 mm 0 W/m2
03:55 5.4 °C 4.8 °C 1028.8 hPa West 1.4 km/h 4.8 km/h 96% 0.0 mm 0 W/m2
04:00 5.6 °C 5 °C 1028.8 hPa WNW 3.2 km/h 8 km/h 96% 0.0 mm 0 W/m2
04:05 5.6 °C 5 °C 1029.1 hPa Calm   1.6 km/h 96% 0.0 mm 0 W/m2
04:10 5.6 °C 5 °C 1028.8 hPa Calm   8 km/h 96% 0.0 mm 0 W/m2
04:15 5.4 °C 4.8 °C 1029.1 hPa WNW 1.4 km/h 1.6 km/h 96% 0.0 mm 0 W/m2
04:20 5.3 °C 4.7 °C 1029.1 hPa Calm     96% 0.0 mm 0 W/m2
04:25 5.3 °C 4.7 °C 1029.1 hPa Calm     96% 0.0 mm 0 W/m2
04:30 5.2 °C 4.6 °C 1029.1 hPa WNW 1.4 km/h 4.8 km/h 96% 0.0 mm 0 W/m2
04:35 5.1 °C 4.5 °C 1028.8 hPa Calm     96% 0.0 mm 0 W/m2
04:40 5 °C 4.4 °C 1029.1 hPa Calm   4.8 km/h 96% 0.0 mm 0 W/m2
04:45 4.9 °C 4.3 °C 1029.1 hPa Calm     96% 0.0 mm 0 W/m2
04:50 4.8 °C 4.2 °C 1029.1 hPa Calm     96% 0.0 mm 0 W/m2
04:55 4.8 °C 4.2 °C 1029.1 hPa WNW 3.2 km/h 3.2 km/h 96% 0.0 mm 0 W/m2
05:00 5 °C 4.4 °C 1029.1 hPa WNW 3.2 km/h 4.8 km/h 96% 0.0 mm 0 W/m2
05:05 5.1 °C 4.5 °C 1029.1 hPa Calm   3.2 km/h 96% 0.0 mm 0 W/m2
05:10 5.1 °C 4.5 °C 1029.1 hPa Calm     96% 0.0 mm 0 W/m2
05:15 5.1 °C 4.5 °C 1029.5 hPa West 1.4 km/h 3.2 km/h 96% 0.0 mm 0 W/m2
05:20 5.1 °C 4.5 °C 1029.5 hPa West 3.2 km/h 4.8 km/h 96% 0.0 mm 0 W/m2
05:25 5.1 °C 4.5 °C 1029.5 hPa West 1.4 km/h 3.2 km/h 96% 0.0 mm 0 W/m2
05:30 5.1 °C 4.5 °C 1029.5 hPa West 1.4 km/h 4.8 km/h 96% 0.0 mm 0 W/m2
05:35 5.1 °C 4.5 °C 1029.5 hPa NW 6.4 km/h 6.4 km/h 96% 0.0 mm 0 W/m2
05:40 5.1 °C 4.5 °C 1029.5 hPa NW 1.4 km/h 4.8 km/h 96% 0.0 mm 0 W/m2
05:45 4.9 °C 4.3 °C 1029.5 hPa West 3.2 km/h 9.7 km/h 96% 0.0 mm 0 W/m2
05:50 4.9 °C 4.3 °C 1029.5 hPa Calm   4.8 km/h 96% 0.0 mm 0 W/m2
05:55 4.9 °C 4.3 °C 1029.5 hPa West 1.4 km/h 3.2 km/h 96% 0.0 mm 0 W/m2
06:00 4.9 °C 4.3 °C 1029.5 hPa WNW 3.2 km/h 3.2 km/h 96% 0.0 mm 0 W/m2
06:05 4.9 °C 4.3 °C 1029.5 hPa Calm   1.6 km/h 96% 0.0 mm 0 W/m2
06:10 4.8 °C 4.2 °C 1029.8 hPa NW 1.4 km/h 3.2 km/h 96% 0.0 mm 0 W/m2
06:15 4.8 °C 4.2 °C 1029.8 hPa NNW 3.2 km/h 3.2 km/h 96% 0.0 mm 0 W/m2
06:20 4.8 °C 4.2 °C 1029.8 hPa Calm   3.2 km/h 96% 0.0 mm 0 W/m2
06:25 4.7 °C 4.1 °C 1029.8 hPa NW 3.2 km/h 4.8 km/h 96% 0.0 mm 0 W/m2
06:30 4.7 °C 4.1 °C 1029.8 hPa WNW 1.4 km/h 4.8 km/h 96% 0.0 mm 0 W/m2
06:35 4.7 °C 4.1 °C 1029.8 hPa West 3.2 km/h 4.8 km/h 96% 0.0 mm 0 W/m2
06:41 4.6 °C 4 °C 1029.8 hPa WNW 4.7 km/h 6.4 km/h 96% 0.0 mm 0 W/m2
06:46 4.5 °C 3.9 °C 1029.8 hPa WNW 3.2 km/h 4.8 km/h 96% 0.0 mm 0 W/m2
06:51 4.4 °C 3.8 °C 1029.8 hPa West 1.4 km/h 3.2 km/h 96% 0.0 mm 0 W/m2
06:56 4.3 °C 3.7 °C 1029.8 hPa WNW 3.2 km/h 4.8 km/h 96% 0.0 mm 0 W/m2
07:01 4.3 °C 3.7 °C 1029.8 hPa WNW 1.4 km/h 4.8 km/h 96% 0.0 mm 0 W/m2
07:06 4.3 °C 3.7 °C 1029.8 hPa NW 1.4 km/h 3.2 km/h 96% 0.0 mm 0 W/m2
07:11 4.3 °C 3.7 °C 1029.8 hPa Calm   3.2 km/h 96% 0.0 mm 0 W/m2
07:16 4.3 °C 3.7 °C 1029.8 hPa NNW 1.4 km/h 3.2 km/h 96% 0.0 mm 0 W/m2
07:21 4.3 °C 3.7 °C 1029.8 hPa NNW 1.4 km/h 3.2 km/h 96% 0.0 mm 0 W/m2
07:26 4.3 °C 3.7 °C 1029.8 hPa Calm     96% 0.0 mm 0 W/m2
07:31 4.2 °C 3.6 °C 1029.8 hPa Calm   1.6 km/h 96% 0.0 mm 0 W/m2
07:36 4.2 °C 3.8 °C 1030.1 hPa Calm   3.2 km/h 97% 0.0 mm 0 W/m2
07:41 4.2 °C 3.8 °C 1030.1 hPa NW 1.4 km/h 3.2 km/h 97% 0.0 mm 0 W/m2
07:46 4.2 °C 3.8 °C 1030.1 hPa Calm   3.2 km/h 97% 0.0 mm 0 W/m2
07:51 4.2 °C 3.8 °C 1030.1 hPa NW 3.2 km/h 4.8 km/h 97% 0.0 mm 0 W/m2
07:56 4.2 °C 3.8 °C 1030.1 hPa West 1.4 km/h 4.8 km/h 97% 0.0 mm 0 W/m2
08:01 4.2 °C 3.8 °C 1030.5 hPa Calm   1.6 km/h 97% 0.0 mm 5 W/m2
08:06 4.1 °C 3.7 °C 1030.5 hPa West 3.2 km/h 3.2 km/h 97% 0.0 mm 7 W/m2
08:11 4.1 °C 3.7 °C 1030.5 hPa WNW 3.2 km/h 3.2 km/h 97% 0.0 mm 9 W/m2
08:16 4.1 °C 3.7 °C 1030.5 hPa WNW 3.2 km/h 4.8 km/h 97% 0.0 mm 11 W/m2
08:21 4.1 °C 3.7 °C 1030.5 hPa NW 1.4 km/h 6.4 km/h 97% 0.0 mm 12 W/m2
08:26 4.1 °C 3.7 °C 1030.5 hPa NW 1.4 km/h 4.8 km/h 97% 0.0 mm 18 W/m2
08:31 4.1 °C 3.7 °C 1030.8 hPa West 1.4 km/h 4.8 km/h 97% 0.0 mm 21 W/m2
08:36 4.1 °C 3.7 °C 1030.8 hPa WNW 3.2 km/h 4.8 km/h 97% 0.0 mm 25 W/m2
08:41 4.2 °C 3.8 °C 1030.8 hPa NW 3.2 km/h 4.8 km/h 97% 0.0 mm 28 W/m2
08:46 4.2 °C 3.8 °C 1030.8 hPa West 3.2 km/h 9.7 km/h 97% 0.0 mm 30 W/m2
08:51 4.2 °C 3.8 °C 1030.8 hPa Calm   3.2 km/h 97% 0.0 mm 33 W/m2
08:56 4.2 °C 3.8 °C 1030.8 hPa WNW 3.2 km/h 8 km/h 97% 0.0 mm 33 W/m2
09:01 4.3 °C 3.9 °C 1030.8 hPa Calm     97% 0.0 mm 35 W/m2
09:06 4.4 °C 4 °C 1030.8 hPa Calm   3.2 km/h 97% 0.0 mm 35 W/m2
09:11 4.4 °C 4 °C 1030.8 hPa Calm     97% 0.0 mm 33 W/m2
09:16 4.5 °C 4.1 °C 1030.8 hPa Calm   1.6 km/h 97% 0.0 mm 32 W/m2
09:21 4.6 °C 4.2 °C 1031.2 hPa Calm   1.6 km/h 97% 0.0 mm 28 W/m2
09:26 4.6 °C 4.2 °C 1031.2 hPa Calm   4.8 km/h 97% 0.0 mm 33 W/m2
09:31 4.6 °C 4.2 °C 1031.2 hPa Calm     97% 0.0 mm 44 W/m2
09:36 4.6 °C 4.2 °C 1031.2 hPa Calm   4.8 km/h 97% 0.0 mm 46 W/m2
09:41 4.7 °C 4.3 °C 1031.2 hPa West 3.2 km/h 3.2 km/h 97% 0.0 mm 51 W/m2
09:46 4.7 °C 4.3 °C 1031.2 hPa West 1.4 km/h 4.8 km/h 97% 0.0 mm 53 W/m2
09:51 4.7 °C 4.3 °C 1030.8 hPa Calm   1.6 km/h 97% 0.0 mm 56 W/m2
09:56 4.8 °C 4.4 °C 1031.2 hPa Calm   3.2 km/h 97% 0.0 mm 69 W/m2
10:01 4.8 °C 4.4 °C 1030.8 hPa WNW 1.4 km/h 1.6 km/h 97% 0.0 mm 65 W/m2
10:06 4.9 °C 4.5 °C 1030.8 hPa WNW 1.4 km/h 3.2 km/h 97% 0.0 mm 77 W/m2
10:11 4.9 °C 4.5 °C 1030.8 hPa West 1.4 km/h 4.8 km/h 97% 0.0 mm 70 W/m2
10:16 4.9 °C 4.5 °C 1031.2 hPa Calm   1.6 km/h 97% 0.0 mm 67 W/m2
10:21 4.9 °C 4.5 °C 1031.2 hPa West 3.2 km/h 4.8 km/h 97% 0.0 mm 63 W/m2
10:26 5 °C 4.6 °C 1031.2 hPa Calm     97% 0.0 mm 62 W/m2
10:31 5.1 °C 4.7 °C 1031.2 hPa Calm   3.2 km/h 97% 0.0 mm 67 W/m2
10:36 5.1 °C 4.7 °C 1031.2 hPa West 4.7 km/h 6.4 km/h 97% 0.0 mm 84 W/m2
10:41 5.2 °C 4.8 °C 1031.5 hPa WNW 1.4 km/h 4.8 km/h 97% 0.0 mm 81 W/m2
10:46 5.2 °C 4.8 °C 1031.5 hPa Calm     97% 0.0 mm 91 W/m2
10:51 5.3 °C 4.9 °C 1031.5 hPa Calm   4.8 km/h 97% 0.0 mm 81 W/m2
10:56 5.4 °C 5 °C 1031.5 hPa ESE 4.7 km/h 4.8 km/h 97% 0.0 mm 77 W/m2
11:01 5.5 °C 5.1 °C 1031.5 hPa Calm     97% 0.0 mm 74 W/m2
11:06 5.5 °C 5.1 °C 1031.8 hPa Calm     97% 0.0 mm 76 W/m2
11:11 5.5 °C 5.1 °C 1031.8 hPa ENE 3.2 km/h 6.4 km/h 97% 0.0 mm 84 W/m2
11:16 5.5 °C 5.1 °C 1031.5 hPa NW 1.4 km/h 4.8 km/h 97% 0.0 mm 90 W/m2
11:21 5.6 °C 5.2 °C 1031.8 hPa WNW 4.7 km/h 4.8 km/h 97% 0.0 mm 76 W/m2
11:26 5.5 °C 5.1 °C 1031.8 hPa WNW 4.7 km/h 4.8 km/h 97% 0.0 mm 74 W/m2
11:31 5.6 °C 5.2 °C 1031.8 hPa WNW 3.2 km/h 4.8 km/h 97% 0.0 mm 76 W/m2
11:36 5.7 °C 5.3 °C 1031.5 hPa WNW 7.9 km/h 11.3 km/h 97% 0.0 mm 90 W/m2
11:41 5.8 °C 5.4 °C 1031.5 hPa West 1.4 km/h 3.2 km/h 97% 0.0 mm 109 W/m2
11:46 5.9 °C 5.5 °C 1031.5 hPa Calm   11.3 km/h 97% 0.0 mm 107 W/m2
11:51 5.9 °C 5.5 °C 1031.5 hPa Calm     97% 0.0 mm 90 W/m2
11:56 5.9 °C 5.5 °C 1031.5 hPa SW 4.7 km/h 8 km/h 97% 0.0 mm 102 W/m2
12:01 6 °C 5.6 °C 1031.2 hPa Calm   1.6 km/h 97% 0.0 mm 104 W/m2
12:06 6.1 °C 5.7 °C 1031.2 hPa NW 4.7 km/h 8 km/h 97% 0.0 mm 77 W/m2
12:11 6.2 °C 5.8 °C 1031.2 hPa NW 4.7 km/h 4.8 km/h 97% 0.0 mm 84 W/m2
12:16 6.2 °C 5.8 °C 1031.2 hPa NW 3.2 km/h 9.7 km/h 97% 0.0 mm 84 W/m2
12:21 6.1 °C 5.5 °C 1031.2 hPa NW 1.4 km/h 6.4 km/h 96% 0.0 mm 74 W/m2
12:26 6.2 °C 5.6 °C 1031.2 hPa Calm   8 km/h 96% 0.0 mm 86 W/m2
12:31 6.2 °C 5.6 °C 1031.2 hPa Calm   4.8 km/h 96% 0.0 mm 77 W/m2
12:36 6.3 °C 5.7 °C 1031.2 hPa WNW 1.4 km/h 3.2 km/h 96% 0.0 mm 81 W/m2
12:41 6.3 °C 5.7 °C 1031.2 hPa WNW 3.2 km/h 3.2 km/h 96% 0.0 mm 76 W/m2
12:46 6.4 °C 5.8 °C 1030.8 hPa NW 1.4 km/h 1.6 km/h 96% 0.0 mm 79 W/m2
12:51 6.4 °C 5.8 °C 1031.2 hPa Calm   3.2 km/h 96% 0.0 mm 83 W/m2
12:56 6.5 °C 5.9 °C 1031.2 hPa NW 1.4 km/h 6.4 km/h 96% 0.0 mm 76 W/m2
13:02 6.6 °C 5.9 °C 1031.2 hPa NNW 3.2 km/h 3.2 km/h 95% 0.0 mm 77 W/m2
13:07 6.6 °C 5.9 °C 1031.2 hPa West 3.2 km/h 4.8 km/h 95% 0.0 mm 90 W/m2
13:12 6.7 °C 6 °C 1031.2 hPa Calm   1.6 km/h 95% 0.0 mm 90 W/m2
13:17 6.7 °C 6 °C 1031.2 hPa West 4.7 km/h 6.4 km/h 95% 0.0 mm 90 W/m2
13:22 6.8 °C 5.9 °C 1031.2 hPa Calm   1.6 km/h 94% 0.0 mm 91 W/m2
13:27 6.8 °C 5.9 °C 1031.2 hPa Calm   6.4 km/h 94% 0.0 mm 90 W/m2
13:32 6.9 °C 6 °C 1031.2 hPa West 3.2 km/h 6.4 km/h 94% 0.0 mm 107 W/m2
13:37 7 °C 6.1 °C 1031.2 hPa Calm   1.6 km/h 94% 0.0 mm 102 W/m2
13:42 7.1 °C 6.2 °C 1031.2 hPa West 1.4 km/h 3.2 km/h 94% 0.0 mm 100 W/m2
13:47 7.1 °C 6 °C 1031.2 hPa Calm   1.6 km/h 93% 0.0 mm 88 W/m2
13:52 7.2 °C 6.1 °C 1030.8 hPa West 6.4 km/h 6.4 km/h 93% 0.0 mm 102 W/m2
13:57 7.2 °C 6.1 °C 1030.8 hPa West 6.4 km/h 6.4 km/h 93% 0.0 mm 97 W/m2
14:02 7.2 °C 6 °C 1030.8 hPa WNW 6.4 km/h 6.4 km/h 92% 0.0 mm 118 W/m2
14:07 7.1 °C 5.9 °C 1030.8 hPa WNW 4.7 km/h 6.4 km/h 92% 0.0 mm 98 W/m2
14:12 7.2 °C 6 °C 1030.8 hPa West 3.2 km/h 8 km/h 92% 0.0 mm 98 W/m2
14:17 7.1 °C 5.9 °C 1030.8 hPa NW 3.2 km/h 4.8 km/h 92% 0.0 mm 84 W/m2
14:22 7.2 °C 6 °C 1030.8 hPa NNW 1.4 km/h 6.4 km/h 92% 0.0 mm 91 W/m2
14:27 7.2 °C 6 °C 1030.8 hPa West 3.2 km/h 9.7 km/h 92% 0.0 mm 91 W/m2
14:32 7.2 °C 6 °C 1030.8 hPa Calm   4.8 km/h 92% 0.0 mm 113 W/m2
14:37 7.3 °C 6.1 °C 1030.8 hPa SW 1.4 km/h 4.8 km/h 92% 0.0 mm 134 W/m2
14:42 7.4 °C 6.2 °C 1030.8 hPa WSW 1.4 km/h 6.4 km/h 92% 0.0 mm 90 W/m2
14:47 7.3 °C 5.9 °C 1030.5 hPa WNW 4.7 km/h 4.8 km/h 91% 0.0 mm 91 W/m2
14:52 7.3 °C 5.9 °C 1030.8 hPa WNW 4.7 km/h 4.8 km/h 91% 0.0 mm 88 W/m2
14:57 7.3 °C 5.9 °C 1030.8 hPa West 3.2 km/h 3.2 km/h 91% 0.0 mm 86 W/m2
15:02 7.3 °C 5.9 °C 1030.8 hPa WSW 3.2 km/h 6.4 km/h 91% 0.0 mm 74 W/m2
15:07 7.3 °C 5.9 °C 1030.8 hPa West 3.2 km/h 12.9 km/h 91% 0.0 mm 76 W/m2
15:12 7.3 °C 5.8 °C 1030.8 hPa WNW 3.2 km/h 9.7 km/h 90% 0.0 mm 83 W/m2
15:17 7.3 °C 5.8 °C 1030.8 hPa WSW 4.7 km/h 12.9 km/h 90% 0.0 mm 109 W/m2
15:22 7.3 °C 5.9 °C 1030.8 hPa West 3.2 km/h 3.2 km/h 91% 0.0 mm 127 W/m2
15:27 7.4 °C 6 °C 1030.8 hPa SW 3.2 km/h 8 km/h 91% 0.0 mm 114 W/m2
15:32 7.6 °C 6.2 °C 1030.8 hPa Calm   3.2 km/h 91% 0.0 mm 79 W/m2
15:37 7.7 °C 6.3 °C 1030.8 hPa Calm   1.6 km/h 91% 0.0 mm 81 W/m2
15:42 7.7 °C 6.3 °C 1030.8 hPa NW 1.4 km/h 6.4 km/h 91% 0.0 mm 67 W/m2
15:47 7.7 °C 6.2 °C 1030.8 hPa NW 3.2 km/h 6.4 km/h 90% 0.0 mm 53 W/m2
15:52 7.7 °C 6.2 °C 1030.8 hPa West 3.2 km/h 6.4 km/h 90% 0.0 mm 44 W/m2
15:57 7.7 °C 6.2 °C 1030.8 hPa West 1.4 km/h 4.8 km/h 90% 0.0 mm 42 W/m2
16:02 7.7 °C 6.2 °C 1030.8 hPa West 1.4 km/h 6.4 km/h 90% 0.0 mm 40 W/m2
16:07 7.7 °C 6.3 °C 1030.8 hPa WNW 3.2 km/h 6.4 km/h 91% 0.0 mm 33 W/m2
16:12 7.6 °C 6.1 °C 1030.8 hPa WNW 6.4 km/h 9.7 km/h 90% 0.0 mm 28 W/m2
16:17 7.5 °C 6 °C 1030.8 hPa Calm   6.4 km/h 90% 0.0 mm 26 W/m2
16:22 7.4 °C 6 °C 1030.8 hPa WSW 3.2 km/h 9.7 km/h 91% 0.0 mm 18 W/m2
16:27 7.3 °C 5.9 °C 1030.8 hPa WNW 4.7 km/h 12.9 km/h 91% 0.0 mm 14 W/m2
16:32 7.2 °C 5.8 °C 1030.8 hPa West 3.2 km/h 3.2 km/h 91% 0.0 mm 12 W/m2
16:37 7.2 °C 5.8 °C 1031.2 hPa West 6.4 km/h 6.4 km/h 91% 0.0 mm 11 W/m2
16:42 7.1 °C 5.9 °C 1030.8 hPa Calm   4.8 km/h 92% 0.0 mm 7 W/m2
16:47 6.9 °C 5.7 °C 1030.8 hPa West 1.4 km/h 6.4 km/h 92% 0.0 mm 0 W/m2
16:52 6.8 °C 5.6 °C 1030.8 hPa WNW 4.7 km/h 6.4 km/h 92% 0.0 mm 0 W/m2
16:57 6.7 °C 5.5 °C 1030.8 hPa WSW 3.2 km/h 4.8 km/h 92% 0.0 mm 0 W/m2
17:02 6.6 °C 5.4 °C 1030.8 hPa WNW 4.7 km/h 14.5 km/h 92% 0.0 mm 0 W/m2
17:07 6.4 °C 5.2 °C 1030.8 hPa West 1.4 km/h 3.2 km/h 92% 0.0 mm 0 W/m2
17:12 6.4 °C 5.2 °C 1030.8 hPa West 3.2 km/h 14.5 km/h 92% 0.0 mm 0 W/m2
17:17 6.3 °C 5.3 °C 1030.8 hPa NW 4.7 km/h 4.8 km/h 93% 0.0 mm 0 W/m2
17:22 6.3 °C 5.3 °C 1030.8 hPa WNW 11.3 km/h 11.3 km/h 93% 0.0 mm 0 W/m2
17:27 6.3 °C 5.3 °C 1030.8 hPa WNW 3.2 km/h 8 km/h 93% 0.0 mm 0 W/m2
17:32 6.3 °C 5.3 °C 1030.8 hPa WNW 1.4 km/h 11.3 km/h 93% 0.0 mm 0 W/m2
17:37 6.3 °C 5.3 °C 1030.8 hPa West 4.7 km/h 4.8 km/h 93% 0.0 mm 0 W/m2
17:42 6.3 °C 5.3 °C 1030.8 hPa West 3.2 km/h 4.8 km/h 93% 0.0 mm 0 W/m2
17:47 6.2 °C 5.2 °C 1030.8 hPa WNW 6.4 km/h 6.4 km/h 93% 0.0 mm 0 W/m2
17:52 6.2 °C 5.2 °C 1030.8 hPa West 3.2 km/h 4.8 km/h 93% 0.0 mm 0 W/m2
17:57 6.1 °C 5.1 °C 1030.8 hPa WSW 4.7 km/h 6.4 km/h 93% 0.0 mm 0 W/m2
18:02 6.1 °C 5.1 °C 1030.8 hPa West 4.7 km/h 6.4 km/h 93% 0.0 mm 0 W/m2
18:07 6 °C 5 °C 1030.8 hPa WNW 4.7 km/h 4.8 km/h 93% 0.0 mm 0 W/m2
18:12 5.9 °C 4.9 °C 1031.2 hPa WSW 4.7 km/h 6.4 km/h 93% 0.0 mm 0 W/m2
18:17 5.9 °C 5 °C 1031.2 hPa WNW 3.2 km/h 6.4 km/h 94% 0.0 mm 0 W/m2
18:22 5.8 °C 4.8 °C 1031.2 hPa NW 3.2 km/h 8 km/h 93% 0.0 mm 0 W/m2
18:27 5.7 °C 4.8 °C 1031.2 hPa West 11.1 km/h 11.3 km/h 94% 0.0 mm 0 W/m2
18:32 5.7 °C 4.8 °C 1031.2 hPa WNW 6.4 km/h 11.3 km/h 94% 0.0 mm 0 W/m2
18:37 5.7 °C 4.8 °C 1031.2 hPa WSW 4.7 km/h 11.3 km/h 94% 0.0 mm 0 W/m2
18:42 5.7 °C 4.8 °C 1031.2 hPa WNW 4.7 km/h 9.7 km/h 94% 0.0 mm 0 W/m2
18:47 5.7 °C 4.8 °C 1031.2 hPa West 4.7 km/h 9.7 km/h 94% 0.0 mm 0 W/m2
18:52 5.8 °C 4.9 °C 1031.5 hPa West 4.7 km/h 8 km/h 94% 0.0 mm 0 W/m2
18:57 5.7 °C 4.8 °C 1031.5 hPa West 3.2 km/h 6.4 km/h 94% 0.0 mm 0 W/m2
19:02 5.7 °C 4.8 °C 1031.5 hPa West 6.4 km/h 14.5 km/h 94% 0.0 mm 0 W/m2
19:07 5.7 °C 4.8 °C 1031.5 hPa WNW 6.4 km/h 14.5 km/h 94% 0.0 mm 0 W/m2
19:12 5.7 °C 4.8 °C 1031.5 hPa West 4.7 km/h 11.3 km/h 94% 0.0 mm 0 W/m2
19:17 5.7 °C 4.8 °C 1031.5 hPa West 6.4 km/h 14.5 km/h 94% 0.0 mm 0 W/m2
19:22 5.7 °C 4.8 °C 1031.5 hPa West 6.4 km/h 12.9 km/h 94% 0.0 mm 0 W/m2
19:27 5.7 °C 4.8 °C 1031.5 hPa West 4.7 km/h 12.9 km/h 94% 0.0 mm 0 W/m2
19:32 5.8 °C 4.9 °C 1031.5 hPa West 4.7 km/h 12.9 km/h 94% 0.0 mm 0 W/m2
19:37 5.8 °C 4.9 °C 1031.5 hPa West 4.7 km/h 9.7 km/h 94% 0.0 mm 0 W/m2
19:42 5.8 °C 4.9 °C 1031.5 hPa WSW 7.9 km/h 11.3 km/h 94% 0.0 mm 0 W/m2
19:47 5.8 °C 4.9 °C 1031.5 hPa WNW 4.7 km/h 9.7 km/h 94% 0.0 mm 0 W/m2
19:52 5.9 °C 5 °C 1031.5 hPa WNW 4.7 km/h 8 km/h 94% 0.0 mm 0 W/m2
19:57 5.9 °C 5 °C 1031.5 hPa West 4.7 km/h 4.8 km/h 94% 0.0 mm 0 W/m2
20:02 6 °C 5.1 °C 1031.5 hPa Calm   8 km/h 94% 0.0 mm 0 W/m2
20:07 6 °C 5.1 °C 1031.5 hPa NNW 1.4 km/h 1.6 km/h 94% 0.0 mm 0 W/m2
20:12 6 °C 5.1 °C 1031.5 hPa Calm   1.6 km/h 94% 0.0 mm 0 W/m2
20:17 6 °C 5.1 °C 1031.8 hPa Calm     94% 0.0 mm 0 W/m2
20:22 6 °C 5.1 °C 1031.8 hPa Calm   1.6 km/h 94% 0.0 mm 0 W/m2
20:27 6 °C 5.1 °C 1031.5 hPa NE 1.4 km/h 1.6 km/h 94% 0.0 mm 0 W/m2
20:32 6 °C 5.1 °C 1031.8 hPa Calm     94% 0.0 mm 0 W/m2
20:37 6 °C 5.1 °C 1031.5 hPa Calm   1.6 km/h 94% 0.0 mm 0 W/m2
20:42 5.9 °C 5 °C 1031.5 hPa ESE 4.7 km/h 4.8 km/h 94% 0.0 mm 0 W/m2
20:47 5.9 °C 5 °C 1031.5 hPa East 3.2 km/h 4.8 km/h 94% 0.0 mm 0 W/m2
20:52 5.8 °C 4.9 °C 1031.5 hPa Calm     94% 0.0 mm 0 W/m2
20:57 5.8 °C 4.9 °C 1031.8 hPa Calm     94% 0.0 mm 0 W/m2
21:02 5.7 °C 4.8 °C 1031.8 hPa Calm     94% 0.0 mm 0 W/m2
21:07 5.7 °C 4.8 °C 1031.8 hPa Calm     94% 0.0 mm 0 W/m2
21:12 5.7 °C 4.8 °C 1031.8 hPa North 1.4 km/h 3.2 km/h 94% 0.0 mm 0 W/m2
21:17 5.8 °C 4.9 °C 1031.8 hPa Calm   3.2 km/h 94% 0.0 mm 0 W/m2
21:22 5.9 °C 5.2 °C 1031.8 hPa Calm     95% 0.0 mm 0 W/m2
21:27 5.9 °C 5.2 °C 1031.8 hPa Calm     95% 0.0 mm 0 W/m2
21:32 6 °C 5.3 °C 1031.8 hPa Calm     95% 0.0 mm 0 W/m2
21:37 6.1 °C 5.4 °C 1032.2 hPa Calm     95% 0.0 mm 0 W/m2
21:42 6.1 °C 5.4 °C 1032.2 hPa NW 1.4 km/h 1.6 km/h 95% 0.0 mm 0 W/m2
21:47 6.2 °C 5.5 °C 1032.2 hPa Calm   1.6 km/h 95% 0.0 mm 0 W/m2
21:52 6.3 °C 5.6 °C 1032.2 hPa West 3.2 km/h 4.8 km/h 95% 0.0 mm 0 W/m2
21:57 6.3 °C 5.4 °C 1032.2 hPa West 4.7 km/h 4.8 km/h 94% 0.0 mm 0 W/m2
22:02 6.4 °C 5.5 °C 1032.2 hPa WNW 3.2 km/h 6.4 km/h 94% 0.0 mm 0 W/m2
22:07 6.5 °C 5.6 °C 1032.2 hPa WNW 1.4 km/h 3.2 km/h 94% 0.0 mm 0 W/m2
22:13 6.6 °C 5.7 °C 1032.2 hPa WNW 1.4 km/h 6.4 km/h 94% 0.0 mm 0 W/m2
22:18 6.6 °C 5.7 °C 1032.2 hPa Calm   1.6 km/h 94% 0.0 mm 0 W/m2
22:23 6.6 °C 5.7 °C 1032.2 hPa WNW 1.4 km/h 3.2 km/h 94% 0.0 mm 0 W/m2
22:28 6.7 °C 5.8 °C 1032.2 hPa WNW 3.2 km/h 3.2 km/h 94% 0.0 mm 0 W/m2
22:33 6.7 °C 5.6 °C 1032.5 hPa West 1.4 km/h 3.2 km/h 93% 0.0 mm 0 W/m2
22:38 6.7 °C 5.6 °C 1032.2 hPa West 1.4 km/h 4.8 km/h 93% 0.0 mm 0 W/m2
22:43 6.7 °C 5.6 °C 1032.2 hPa West 1.4 km/h 3.2 km/h 93% 0.0 mm 0 W/m2
22:48 6.7 °C 5.6 °C 1032.2 hPa Calm     93% 0.0 mm 0 W/m2
22:53 6.7 °C 5.6 °C 1032.2 hPa Calm   3.2 km/h 93% 0.0 mm 0 W/m2
22:58 6.7 °C 5.6 °C 1032.2 hPa Calm   1.6 km/h 93% 0.0 mm 0 W/m2
23:03 6.6 °C 5.5 °C 1032.2 hPa West 4.7 km/h 4.8 km/h 93% 0.0 mm 0 W/m2
23:08 6.6 °C 5.5 °C 1032.5 hPa West 1.4 km/h 1.6 km/h 93% 0.0 mm 0 W/m2
23:13 6.6 °C 5.5 °C 1032.2 hPa SSW 7.9 km/h 8 km/h 93% 0.0 mm 0 W/m2
23:18 6.6 °C 5.5 °C 1032.2 hPa West 3.2 km/h 9.7 km/h 93% 0.0 mm 0 W/m2
23:23 6.6 °C 5.5 °C 1032.2 hPa WNW 3.2 km/h 6.4 km/h 93% 0.0 mm 0 W/m2
23:28 6.5 °C 5.4 °C 1032.2 hPa WNW 3.2 km/h 9.7 km/h 93% 0.0 mm 0 W/m2
23:33 6.4 °C 5.4 °C 1032.2 hPa NW 1.4 km/h 6.4 km/h 93% 0.0 mm 0 W/m2
23:38 6.4 °C 5.5 °C 1032.2 hPa WSW 3.2 km/h 4.8 km/h 94% 0.0 mm 0 W/m2
23:43 6.4 °C 5.5 °C 1032.2 hPa NW 1.4 km/h 4.8 km/h 94% 0.0 mm 0 W/m2
23:48 6.4 °C 5.5 °C 1032.2 hPa NNW 3.2 km/h 3.2 km/h 94% 0.0 mm 0 W/m2
23:53 6.4 °C 5.5 °C 1032.2 hPa WNW 3.2 km/h 3.2 km/h 94% 0.0 mm 0 W/m2
23:58 6.3 °C 5.4 °C 1032.2 hPa WNW 1.4 km/h 6.4 km/h 94% 0.0 mm 0 W/m2
Juneau County Weather
Compliments of Weather Underground - 4 mb